Brogan, Oregon
Current Conditions -  °F | °C
As of 2:53 PM on Friday 31 Oct 2014 (Local Time) from KONO Reporting Station
Clear Clear  
Wind Chill: 64°   Ceiling: Unl
Heat Index: 64°   Visibility: 10mi
Dew Point: 38°   Wind: 6mph
Humidity: 38%   Direction: NA
Pressure: 29.78"   Gusts: NA
Location:  44.25°N, 117.52°W
Report Text: KONO 312053Z AUTO VRB05KT 10SM CLR 18/03 A2978 RMK AO2 SLP085 T01780033 58019
Loading
Personal Weather Stations






























Interactive Weather Map
Tropical Storm Tracking
New forecast layout! Learn more

10-Day Weather Forecast

Advertisements
Track Severe Weather on mobile